Time;durP1;ratioP1;P1;durP2;ratioP2;P2;SDS_P1;SDS_P2;PMS_P1;PMS_P2;Temp;Humidity;BMP_temperature;BMP_pressure;BME280_temperature;BME280_humidity;BME280_pressure;Samples;Min_cycle;Max_cycle;Signal;HPM_P1;HPM_P2
2022/04/13 00:02:37;;;;;;;5.90;2.45;;;;;;;;;;5062336;28;20036;-82
2022/04/13 00:05:23;;;;;;;4.78;2.33;;;;;;;;;;5063033;28;20028;-82
2022/04/13 00:08:08;;;;;;;4.22;2.20;;;;;;;;;;5062814;28;20067;-82
2022/04/13 00:10:54;;;;;;;4.07;2.33;;;;;;;;;;5062218;28;20506;-82
2022/04/13 00:13:40;;;;;;;4.75;2.53;;;;;;;;;;5075862;28;20040;-82
2022/04/13 00:16:27;;;;;;;4.78;2.80;;;;;;;;;;5062549;28;20132;-82
2022/04/13 00:19:12;;;;;;;4.30;2.15;;;;;;;;;;5061816;28;20612;-83
2022/04/13 00:21:58;;;;;;;4.32;2.60;;;;;;;;;;5063533;28;20044;-82
2022/04/13 00:24:44;;;;;;;5.72;2.67;;;;;;;;;;5075243;28;20040;-82
2022/04/13 00:27:29;;;;;;;4.50;2.45;;;;;;;;;;5062115;28;20105;-82
2022/04/13 00:30:15;;;;;;;6.43;2.70;;;;;;;;;;5074888;28;20040;-82
2022/04/13 00:33:01;;;;;;;4.43;2.40;;;;;;;;;;5061420;28;20445;-82
2022/04/13 00:35:47;;;;;;;5.13;2.10;;;;;;;;;;5062579;28;20079;-82
2022/04/13 00:38:33;;;;;;;5.10;2.50;;;;;;;;;;5048291;28;20044;-82
2022/04/13 00:41:18;;;;;;;5.32;2.75;;;;;;;;;;5061671;28;20517;-82
2022/04/13 00:44:05;;;;;;;6.80;3.00;;;;;;;;;;5075373;28;20075;-82
2022/04/13 00:46:51;;;;;;;5.60;2.53;;;;;;;;;;5075234;28;20036;-82
2022/04/13 00:49:37;;;;;;;4.03;2.58;;;;;;;;;;5074775;28;20090;-82
2022/04/13 00:52:23;;;;;;;5.40;2.63;;;;;;;;;;5075091;28;20091;-82
2022/04/13 00:55:09;;;;;;;4.45;2.42;;;;;;;;;;5061648;28;20414;-82
2022/04/13 00:57:55;;;;;;;5.25;2.60;;;;;;;;;;5074397;28;20076;-82
2022/04/13 01:00:48;;;;;;;5.25;2.40;;;;;;;;;;5062243;28;20047;-82
2022/04/13 01:03:35;;;;;;;;;;;;;;;;;;5089698;28;20048;-82
2022/04/13 01:06:20;;;;;;;4.18;2.22;;;;;;;;;;5075805;28;19919;-82
2022/04/13 01:09:06;;;;;;;5.15;2.55;;;;;;;;;;5048389;28;20513;-82
2022/04/13 01:11:52;;;;;;;4.15;2.35;;;;;;;;;;5047094;28;20422;-82
2022/04/13 01:14:38;;;;;;;4.38;2.05;;;;;;;;;;5060880;28;20032;-82
2022/04/13 01:17:24;;;;;;;3.58;2.08;;;;;;;;;;5061139;28;20051;-82
2022/04/13 01:20:11;;;;;;;5.18;2.53;;;;;;;;;;5053489;28;20044;-82
2022/04/13 01:22:57;;;;;;;3.78;2.17;;;;;;;;;;5047314;28;20131;-82
2022/04/13 01:25:49;;;;;;;5.68;2.15;;;;;;;;;;5074539;28;20040;-82
2022/04/13 01:28:35;;;;;;;5.68;2.47;;;;;;;;;;5074225;28;20075;-82
2022/04/13 01:31:20;;;;;;;3.90;2.65;;;;;;;;;;5046668;28;20047;-82
2022/04/13 01:34:08;;;;;;;4.25;2.30;;;;;;;;;;5074869;28;20079;-82
2022/04/13 01:36:53;;;;;;;5.18;2.35;;;;;;;;;;5061937;28;20094;-82
2022/04/13 01:39:39;;;;;;;4.30;2.28;;;;;;;;;;5074495;28;20047;-82
2022/04/13 01:42:25;;;;;;;5.25;2.40;;;;;;;;;;5060668;28;20033;-82
2022/04/13 01:45:10;;;;;;;4.03;2.40;;;;;;;;;;5060529;28;20044;-82
2022/04/13 01:47:56;;;;;;;4.43;1.85;;;;;;;;;;5060715;28;20123;-81
2022/04/13 01:50:42;;;;;;;4.32;2.22;;;;;;;;;;5088570;28;20109;-82
2022/04/13 01:53:27;;;;;;;6.32;2.55;;;;;;;;;;5074296;28;20051;-82
2022/04/13 01:56:13;;;;;;;3.47;1.50;;;;;;;;;;5060805;28;20040;-82
2022/04/13 01:59:00;;;;;;;5.45;2.45;;;;;;;;;;5074638;28;20047;-82
2022/04/13 02:01:45;;;;;;;4.18;2.47;;;;;;;;;;5077295;28;20044;-82
2022/04/13 02:04:31;;;;;;;4.72;2.22;;;;;;;;;;5078380;28;20051;-82
2022/04/13 02:07:17;;;;;;;4.78;2.05;;;;;;;;;;5064266;28;20047;-82
2022/04/13 02:10:03;;;;;;;3.47;2.00;;;;;;;;;;5064630;28;20044;-82
2022/04/13 02:12:49;;;;;;;5.03;2.40;;;;;;;;;;5077821;28;20508;-82
2022/04/13 02:15:34;;;;;;;4.70;2.05;;;;;;;;;;5091415;28;20040;-82
2022/04/13 02:18:20;;;;;;;4.35;2.33;;;;;;;;;;5064323;28;20036;-82
2022/04/13 02:21:06;;;;;;;3.80;2.13;;;;;;;;;;5064029;28;20075;-82
2022/04/13 02:23:51;;;;;;;4.60;2.55;;;;;;;;;;5064016;28;20395;-82
2022/04/13 02:26:37;;;;;;;4.55;2.10;;;;;;;;;;5065167;28;20051;-82
2022/04/13 02:29:23;;;;;;;4.20;2.08;;;;;;;;;;5076618;28;20071;-82
2022/04/13 02:32:09;;;;;;;4.57;2.47;;;;;;;;;;5064274;28;20044;-82
2022/04/13 02:34:56;;;;;;;5.40;2.50;;;;;;;;;;5077478;28;20430;-82
2022/04/13 02:37:43;;;;;;;4.15;2.13;;;;;;;;;;5064051;28;20090;-82
2022/04/13 02:40:29;;;;;;;3.20;1.83;;;;;;;;;;5064204;28;20421;-82
2022/04/13 02:43:15;;;;;;;6.18;2.95;;;;;;;;;;5064284;28;20506;-81
2022/04/13 02:46:01;;;;;;;3.90;2.75;;;;;;;;;;5064194;28;20483;-82
2022/04/13 02:48:47;;;;;;;4.68;2.33;;;;;;;;;;5064099;28;20043;-82
2022/04/13 02:51:32;;;;;;;4.82;2.60;;;;;;;;;;5077231;28;20060;-83
2022/04/13 02:54:18;;;;;;;4.35;2.17;;;;;;;;;;5063207;28;20036;-82
2022/04/13 02:57:04;;;;;;;4.82;2.50;;;;;;;;;;5064047;28;20109;-82
2022/04/13 02:59:49;;;;;;;5.13;2.60;;;;;;;;;;5063480;28;20444;-82
2022/04/13 03:02:35;;;;;;;3.63;2.20;;;;;;;;;;5077387;28;20083;-82
2022/04/13 03:05:21;;;;;;;4.97;2.80;;;;;;;;;;5063945;28;20055;-82
2022/04/13 03:08:07;;;;;;;4.55;2.42;;;;;;;;;;5064655;28;20040;-82
2022/04/13 03:10:53;;;;;;;5.28;2.20;;;;;;;;;;5064485;28;20047;-82
2022/04/13 03:13:39;;;;;;;5.13;2.20;;;;;;;;;;5062546;28;20040;-82
2022/04/13 03:16:24;;;;;;;5.10;2.25;;;;;;;;;;5062635;28;20039;-82
2022/04/13 03:19:10;;;;;;;4.72;2.35;;;;;;;;;;5063061;28;20053;-82
2022/04/13 03:21:56;;;;;;;3.72;2.40;;;;;;;;;;5062776;28;20040;-82
2022/04/13 03:24:41;;;;;;;5.78;2.60;;;;;;;;;;5063064;28;20520;-82
2022/04/13 03:27:27;;;;;;;4.60;2.03;;;;;;;;;;5063483;28;20040;-82
2022/04/13 03:30:16;;;;;;;4.82;2.00;;;;;;;;;;5062660;28;20032;-82
2022/04/13 03:33:02;;;;;;;4.72;2.13;;;;;;;;;;5077485;28;20467;-82
2022/04/13 03:35:48;;;;;;;4.45;1.98;;;;;;;;;;5062827;28;20040;-82
2022/04/13 03:38:34;;;;;;;5.20;2.40;;;;;;;;;;5076779;28;20039;-82
2022/04/13 03:41:20;;;;;;;3.92;2.00;;;;;;;;;;5062609;28;20494;-82
2022/04/13 03:44:06;;;;;;;3.78;2.08;;;;;;;;;;5062578;28;20032;-82
2022/04/13 03:46:52;;;;;;;3.20;2.00;;;;;;;;;;5063370;28;20409;-82
2022/04/13 03:49:37;;;;;;;4.57;2.05;;;;;;;;;;5075954;28;20437;-82
2022/04/13 03:52:23;;;;;;;5.47;2.38;;;;;;;;;;5075739;28;20101;-83
2022/04/13 03:55:10;;;;;;;4.65;2.10;;;;;;;;;;5062355;28;20035;-82
2022/04/13 03:57:56;;;;;;;3.95;2.20;;;;;;;;;;5063752;28;20036;-82
2022/04/13 04:00:42;;;;;;;4.70;2.00;;;;;;;;;;5075641;28;20068;-82
2022/04/13 04:03:28;;;;;;;3.65;2.03;;;;;;;;;;5063476;28;20588;-82
2022/04/13 04:06:13;;;;;;;3.58;1.92;;;;;;;;;;5062162;28;20036;-82
2022/04/13 04:08:59;;;;;;;5.30;2.38;;;;;;;;;;5062773;28;20039;-82
2022/04/13 04:11:45;;;;;;;5.32;2.30;;;;;;;;;;5076750;28;20043;-82
2022/04/13 04:14:30;;;;;;;4.32;1.95;;;;;;;;;;5062028;28;20418;-83
2022/04/13 04:17:16;;;;;;;3.78;1.88;;;;;;;;;;5061982;28;20123;-82
2022/04/13 04:20:03;;;;;;;3.70;2.03;;;;;;;;;;5049359;28;20040;-82
2022/04/13 04:22:49;;;;;;;5.28;2.45;;;;;;;;;;5062164;28;20062;-82
2022/04/13 04:25:35;;;;;;;4.57;2.20;;;;;;;;;;5074386;28;20047;-82
2022/04/13 04:28:20;;;;;;;4.60;2.15;;;;;;;;;;5061542;28;20464;-82
2022/04/13 04:31:06;;;;;;;4.85;2.20;;;;;;;;;;5060901;28;20418;-82
2022/04/13 04:33:52;;;;;;;4.28;2.10;;;;;;;;;;5048880;28;20443;-82
2022/04/13 04:36:38;;;;;;;4.35;2.45;;;;;;;;;;5061536;28;20104;-82
2022/04/13 04:39:23;;;;;;;4.53;2.08;;;;;;;;;;5061631;28;20094;-82
2022/04/13 04:42:09;;;;;;;5.03;2.30;;;;;;;;;;5076020;28;20559;-82
2022/04/13 04:44:59;;;;;;;3.83;1.90;;;;;;;;;;5061841;28;20044;-82
2022/04/13 04:47:49;;;;;;;4.38;1.90;;;;;;;;;;5062275;28;20036;-82
2022/04/13 04:50:35;;;;;;;4.50;2.20;;;;;;;;;;5062644;28;20078;-82
2022/04/13 04:53:20;;;;;;;4.03;2.03;;;;;;;;;;5061651;28;20051;-82
2022/04/13 04:56:06;;;;;;;4.97;2.60;;;;;;;;;;5043807;28;20094;-82
2022/04/13 04:58:52;;;;;;;4.90;2.00;;;;;;;;;;5061223;28;20051;-82
2022/04/13 05:01:37;;;;;;;4.05;2.03;;;;;;;;;;5061994;28;20069;-82
2022/04/13 05:04:23;;;;;;;3.30;1.98;;;;;;;;;;5047457;28;20130;-82
2022/04/13 05:07:09;;;;;;;4.93;2.15;;;;;;;;;;5060636;28;20524;-82
2022/04/13 05:09:55;;;;;;;4.35;2.22;;;;;;;;;;5061398;28;20044;-82
2022/04/13 05:12:47;;;;;;;3.63;1.90;;;;;;;;;;5061250;28;20123;-82
2022/04/13 05:15:33;;;;;;;4.03;2.00;;;;;;;;;;5074942;28;20493;-82
2022/04/13 05:18:19;;;;;;;3.88;1.92;;;;;;;;;;5061699;28;20039;-82
2022/04/13 05:21:04;;;;;;;3.80;1.70;;;;;;;;;;5061013;28;20052;-82
2022/04/13 05:23:50;;;;;;;4.97;2.33;;;;;;;;;;5061190;28;20078;-82
2022/04/13 05:26:36;;;;;;;5.53;2.42;;;;;;;;;;5074693;28;20071;-82
2022/04/13 05:29:22;;;;;;;5.18;2.30;;;;;;;;;;5061274;28;20114;-82
2022/04/13 05:32:07;;;;;;;4.75;1.90;;;;;;;;;;5061249;28;20039;-82
2022/04/13 05:35:01;;;;;;;3.40;1.95;;;;;;;;;;5061530;28;20032;-82
2022/04/13 05:37:46;;;;;;;3.97;2.13;;;;;;;;;;5066445;28;20081;-82
2022/04/13 05:40:32;;;;;;;5.03;2.38;;;;;;;;;;5065049;28;20141;-82
2022/04/13 05:43:18;;;;;;;3.97;1.65;;;;;;;;;;5051480;28;20036;-82
2022/04/13 05:46:04;;;;;;;5.72;2.17;;;;;;;;;;5064875;28;20040;-82
2022/04/13 05:48:49;;;;;;;4.18;2.05;;;;;;;;;;5078177;28;20032;-82
2022/04/13 05:51:35;;;;;;;3.72;2.03;;;;;;;;;;5064405;28;20090;-82
2022/04/13 05:54:21;;;;;;;5.45;2.28;;;;;;;;;;5065427;28;20033;-82
2022/04/13 05:57:08;;;;;;;3.65;1.98;;;;;;;;;;5078714;28;20080;-82
2022/04/13 05:59:54;;;;;;;4.97;2.35;;;;;;;;;;5050147;28;20406;-83
2022/04/13 06:02:40;;;;;;;4.03;1.85;;;;;;;;;;5051308;28;20044;-82
2022/04/13 06:05:25;;;;;;;2.85;1.75;;;;;;;;;;5078399;28;20043;-82
2022/04/13 06:08:12;;;;;;;5.20;2.22;;;;;;;;;;5052210;28;20090;-82
2022/04/13 06:10:58;;;;;;;3.58;1.77;;;;;;;;;;5078355;28;20036;-82
2022/04/13 06:13:43;;;;;;;3.35;1.65;;;;;;;;;;5077786;28;20066;-82
2022/04/13 06:16:29;;;;;;;4.72;2.63;;;;;;;;;;5063989;28;20038;-82
2022/04/13 06:19:15;;;;;;;3.95;2.20;;;;;;;;;;5077694;28;20549;-83
2022/04/13 06:22:00;;;;;;;5.90;1.85;;;;;;;;;;5064815;28;20039;-82
2022/04/13 06:24:51;;;;;;;4.82;2.72;;;;;;;;;;5064087;28;20044;-82
2022/04/13 06:27:37;;;;;;;3.75;2.17;;;;;;;;;;5064861;28;20117;-82
2022/04/13 06:30:23;;;;;;;4.78;2.72;;;;;;;;;;5063919;28;20502;-83
2022/04/13 06:33:08;;;;;;;3.95;1.80;;;;;;;;;;5064694;28;20059;-82
2022/04/13 06:35:54;;;;;;;4.40;2.28;;;;;;;;;;5063980;28;20508;-82
2022/04/13 06:38:40;;;;;;;3.20;1.70;;;;;;;;;;5064112;28;20575;-82
2022/04/13 06:41:26;;;;;;;3.63;2.00;;;;;;;;;;5064475;28;20129;-82
2022/04/13 06:44:12;;;;;;;4.10;2.15;;;;;;;;;;5065429;28;20036;-82
2022/04/13 06:46:59;;;;;;;3.40;1.83;;;;;;;;;;5063420;28;20101;-82
2022/04/13 06:49:47;;;;;;;4.13;1.90;;;;;;;;;;5063528;28;20048;-82
2022/04/13 06:52:34;;;;;;;3.65;1.65;;;;;;;;;;5063691;28;20418;-82
2022/04/13 06:55:20;;;;;;;3.40;1.60;;;;;;;;;;5049900;28;20123;-82
2022/04/13 06:58:06;;;;;;;4.53;1.77;;;;;;;;;;5063325;28;20040;-82
2022/04/13 07:00:52;;;;;;;4.35;1.80;;;;;;;;;;5063025;28;20111;-82
2022/04/13 07:03:37;;;;;;;3.85;2.10;;;;;;;;;;5050712;28;20083;-82
2022/04/13 07:06:23;;;;;;;5.35;2.28;;;;;;;;;;5063571;28;20028;-82
2022/04/13 07:09:09;;;;;;;3.65;2.15;;;;;;;;;;5064235;28;20043;-81
2022/04/13 07:11:54;;;;;;;5.55;2.15;;;;;;;;;;5062891;28;20047;-82
2022/04/13 07:14:41;;;;;;;4.97;2.65;;;;;;;;;;5048727;28;20028;-82
2022/04/13 07:17:27;;;;;;;4.32;1.80;;;;;;;;;;5050164;28;20605;-80
2022/04/13 07:20:13;;;;;;;4.07;2.72;;;;;;;;;;5050084;28;20052;-81
2022/04/13 07:22:59;;;;;;;5.30;2.45;;;;;;;;;;5063817;28;20040;-82
2022/04/13 07:25:44;;;;;;;5.70;2.63;;;;;;;;;;5048665;28;20042;-82
2022/04/13 07:28:30;;;;;;;4.25;2.78;;;;;;;;;;5049404;28;20039;-82
2022/04/13 07:31:16;;;;;;;4.38;2.30;;;;;;;;;;5061638;28;20035;-82
2022/04/13 07:34:02;;;;;;;4.97;2.08;;;;;;;;;;5048950;28;20032;-81
2022/04/13 07:36:48;;;;;;;3.90;2.42;;;;;;;;;;5049631;28;20132;-81
2022/04/13 07:39:34;;;;;;;4.68;2.63;;;;;;;;;;5062681;28;20406;-82
2022/04/13 07:42:23;;;;;;;4.72;2.65;;;;;;;;;;5049000;28;20070;-82
2022/04/13 07:45:09;;;;;;;7.10;2.38;;;;;;;;;;5048435;28;20461;-82
2022/04/13 07:47:55;;;;;;;5.35;2.80;;;;;;;;;;5049556;28;20047;-82
2022/04/13 07:50:41;;;;;;;6.35;2.60;;;;;;;;;;5049345;28;20048;-82
2022/04/13 07:53:26;;;;;;;4.68;2.58;;;;;;;;;;5049224;28;20054;-82
2022/04/13 07:56:13;;;;;;;5.47;2.40;;;;;;;;;;5074380;28;20044;-82
2022/04/13 07:58:58;;;;;;;4.93;2.47;;;;;;;;;;5075822;28;20036;-82
2022/04/13 08:01:44;;;;;;;5.25;2.17;;;;;;;;;;5048505;28;20040;-82
2022/04/13 08:04:30;;;;;;;4.20;2.15;;;;;;;;;;5061127;28;20032;-82
2022/04/13 08:07:16;;;;;;;4.63;2.30;;;;;;;;;;5048248;28;20044;-82
2022/04/13 08:10:01;;;;;;;5.63;2.55;;;;;;;;;;5048828;28;20036;-81
2022/04/13 08:12:47;;;;;;;5.20;2.33;;;;;;;;;;5049201;28;20508;-82
2022/04/13 08:15:33;;;;;;;4.07;2.10;;;;;;;;;;5048705;28;20540;-82
2022/04/13 08:18:18;;;;;;;3.97;2.22;;;;;;;;;;5063245;28;20039;-82
2022/04/13 08:21:04;;;;;;;4.68;2.55;;;;;;;;;;5048613;28;20036;-82
2022/04/13 08:23:51;;;;;;;4.72;2.22;;;;;;;;;;5048325;28;20579;-82
2022/04/13 08:26:36;;;;;;;4.30;2.00;;;;;;;;;;5047069;28;20032;-82
2022/04/13 08:29:24;;;;;;;4.18;2.10;;;;;;;;;;5061475;28;20070;-82
2022/04/13 08:32:09;;;;;;;5.90;2.58;;;;;;;;;;5075536;28;20055;-82
2022/04/13 08:34:56;;;;;;;5.85;3.17;;;;;;;;;;5061560;28;20039;-82
2022/04/13 08:37:43;;;;;;;5.25;2.30;;;;;;;;;;5047831;28;20055;-82
2022/04/13 08:40:31;;;;;;;4.75;2.17;;;;;;;;;;5062028;28;20051;-80
2022/04/13 08:43:19;;;;;;;4.65;1.77;;;;;;;;;;5049358;28;20044;-80
2022/04/13 08:46:07;;;;;;;3.63;2.65;;;;;;;;;;5061776;28;20042;-82
2022/04/13 08:48:55;;;;;;;6.22;2.70;;;;;;;;;;5061955;28;20109;-82
2022/04/13 08:51:41;;;;;;;4.00;2.50;;;;;;;;;;5061717;28;20521;-82
2022/04/13 08:54:29;;;;;;;5.80;2.40;;;;;;;;;;5047725;28;20043;-82
2022/04/13 08:57:15;;;;;;;5.32;2.45;;;;;;;;;;5061172;28;20118;-82
2022/04/13 09:00:08;;;;;;;5.80;2.40;;;;;;;;;;5073310;28;20070;-82
2022/04/13 09:03:05;;;;;;;;;;;;;;;;;;5076228;28;20117;-82
2022/04/13 09:05:52;;;;;;;5.95;2.22;;;;;;;;;;5075555;28;19908;-82
2022/04/13 09:08:54;;;;;;;4.72;2.28;;;;;;;;;;5076121;28;20097;-82
2022/04/13 09:11:40;;;;;;;5.43;2.50;;;;;;;;;;5060825;28;20456;-82
2022/04/13 09:14:29;;;;;;;3.30;1.88;;;;;;;;;;5046929;28;20441;-82
2022/04/13 09:17:15;;;;;;;6.20;2.58;;;;;;;;;;5046912;28;20036;-82
2022/04/13 09:20:01;;;;;;;4.03;2.50;;;;;;;;;;5060327;28;20048;-82
2022/04/13 09:22:47;;;;;;;4.38;2.05;;;;;;;;;;5047976;28;20040;-82
2022/04/13 09:25:33;;;;;;;5.60;2.35;;;;;;;;;;5047728;28;20048;-82
2022/04/13 09:28:20;;;;;;;4.55;1.80;;;;;;;;;;5045264;28;20039;-82
2022/04/13 09:31:05;;;;;;;5.85;2.30;;;;;;;;;;5061135;28;20040;-82
2022/04/13 09:33:51;;;;;;;4.75;2.00;;;;;;;;;;5048152;28;20127;-82
2022/04/13 09:36:37;;;;;;;5.32;2.15;;;;;;;;;;5061096;28;20159;-82
2022/04/13 09:39:23;;;;;;;3.85;2.53;;;;;;;;;;5061907;28;20038;-82
2022/04/13 09:42:12;;;;;;;4.13;2.33;;;;;;;;;;5053089;28;20040;-82
2022/04/13 09:45:02;;;;;;;4.93;2.05;;;;;;;;;;5060969;28;20066;-82
2022/04/13 09:47:48;;;;;;;6.55;1.60;;;;;;;;;;5062304;28;20461;-82
2022/04/13 09:50:34;;;;;;;5.03;1.88;;;;;;;;;;5075016;28;20127;-82
2022/04/13 09:53:20;;;;;;;6.07;1.88;;;;;;;;;;5061105;28;20052;-82
2022/04/13 09:56:06;;;;;;;4.63;2.03;;;;;;;;;;5073768;28;20036;-82
2022/04/13 09:58:52;;;;;;;6.10;2.30;;;;;;;;;;5061204;28;20036;-82
2022/04/13 10:01:37;;;;;;;4.90;2.00;;;;;;;;;;5059658;28;20589;-82
2022/04/13 10:04:27;;;;;;;4.53;1.85;;;;;;;;;;5047719;28;20521;-82
2022/04/13 10:07:17;;;;;;;4.32;1.88;;;;;;;;;;5060714;28;20085;-82
2022/04/13 10:10:03;;;;;;;4.68;2.15;;;;;;;;;;5060734;28;20044;-82
2022/04/13 10:12:52;;;;;;;3.47;1.50;;;;;;;;;;5047027;28;20036;-82
2022/04/13 10:15:38;;;;;;;4.35;1.98;;;;;;;;;;5047315;28;20044;-82
2022/04/13 10:18:24;;;;;;;3.80;1.85;;;;;;;;;;5047327;28;20131;-82
2022/04/13 10:21:09;;;;;;;3.72;1.92;;;;;;;;;;5075772;28;20040;-82
2022/04/13 10:23:55;;;;;;;5.25;1.55;;;;;;;;;;5064817;28;20101;-82
2022/04/13 10:27:20;;;;;;;5.38;1.75;;;;;;;;;;5077467;28;20502;-82
2022/04/13 10:30:06;;;;;;;5.18;1.80;;;;;;;;;;4966345;28;20034;-82
2022/04/13 10:33:04;;;;;;;3.67;1.95;;;;;;;;;;5064726;28;20047;-82
2022/04/13 10:35:53;;;;;;;2.67;1.55;;;;;;;;;;5091127;28;20040;-81
2022/04/13 10:38:38;;;;;;;4.03;2.40;;;;;;;;;;5064560;28;20145;-80
2022/04/13 10:41:24;;;;;;;5.57;2.00;;;;;;;;;;5050990;28;20028;-81
2022/04/13 10:44:10;;;;;;;4.60;2.65;;;;;;;;;;5063836;28;20114;-81
2022/04/13 10:46:59;;;;;;;6.35;2.20;;;;;;;;;;5077851;28;20476;-82
2022/04/13 10:49:55;;;;;;;4.25;1.77;;;;;;;;;;5078225;28;20051;-82
2022/04/13 10:52:58;;;;;;;3.75;1.70;;;;;;;;;;5065568;28;20040;-82
2022/04/13 10:55:45;;;;;;;4.88;1.98;;;;;;;;;;5076378;28;20448;-82
2022/04/13 10:58:52;;;;;;;3.60;1.50;;;;;;;;;;5064921;28;20035;-82
2022/04/13 11:01:44;;;;;;;4.72;1.98;;;;;;;;;;5077926;28;20036;-82
2022/04/13 11:04:31;;;;;;;4.15;1.90;;;;;;;;;;5077772;28;20067;-82
2022/04/13 11:07:18;;;;;;;3.13;1.70;;;;;;;;;;5050736;28;20048;-82
2022/04/13 11:10:04;;;;;;;4.30;2.20;;;;;;;;;;5063732;28;20589;-82
2022/04/13 11:12:50;;;;;;;3.28;1.60;;;;;;;;;;5063928;28;20085;-82
2022/04/13 11:15:40;;;;;;;5.32;1.80;;;;;;;;;;5063884;28;20036;-82
2022/04/13 11:18:25;;;;;;;4.90;2.00;;;;;;;;;;5050246;28;20575;-82
2022/04/13 11:21:11;;;;;;;4.28;1.75;;;;;;;;;;5050451;28;20036;-82
2022/04/13 11:23:57;;;;;;;4.25;1.67;;;;;;;;;;5062911;28;20494;-82
2022/04/13 11:26:43;;;;;;;4.07;1.65;;;;;;;;;;5049728;28;20072;-83
2022/04/13 11:29:33;;;;;;;3.70;1.83;;;;;;;;;;5077373;28;20036;-82
2022/04/13 11:32:23;;;;;;;7.97;1.52;;;;;;;;;;5062973;28;20035;-83
2022/04/13 11:35:24;;;;;;;4.10;1.65;;;;;;;;;;5051363;28;20497;-82
2022/04/13 11:38:09;;;;;;;3.97;2.00;;;;;;;;;;5064465;28;20032;-82
2022/04/13 11:41:06;;;;;;;3.83;2.08;;;;;;;;;;5048942;28;20044;-83
2022/04/13 11:43:52;;;;;;;3.38;1.55;;;;;;;;;;5062813;28;20406;-82
2022/04/13 11:46:39;;;;;;;5.10;2.40;;;;;;;;;;5076493;28;20082;-82
2022/04/13 11:49:31;;;;;;;4.07;1.80;;;;;;;;;;5062441;28;20040;-82
2022/04/13 11:52:42;;;;;;;3.42;1.67;;;;;;;;;;5076718;28;20131;-82
2022/04/13 11:55:32;;;;;;;3.92;1.77;;;;;;;;;;5076159;28;20044;-83
2022/04/13 11:58:20;;;;;;;3.70;1.42;;;;;;;;;;5076864;28;20430;-83
2022/04/13 12:01:11;;;;;;;3.63;1.40;;;;;;;;;;5062276;28;20036;-82
2022/04/13 12:03:57;;;;;;;4.65;2.45;;;;;;;;;;5063719;28;20521;-82
2022/04/13 12:06:43;;;;;;;3.58;1.70;;;;;;;;;;5062675;28;20414;-82
2022/04/13 12:09:29;;;;;;;3.45;1.50;;;;;;;;;;5063584;28;20422;-83
2022/04/13 12:12:15;;;;;;;3.58;1.52;;;;;;;;;;5074445;28;20040;-80
2022/04/13 12:15:01;;;;;;;2.60;1.15;;;;;;;;;;5061965;28;20131;-80
2022/04/13 12:17:47;;;;;;;7.15;1.65;;;;;;;;;;5062175;28;20040;-80
2022/04/13 12:20:32;;;;;;;4.43;1.50;;;;;;;;;;5075515;28;20453;-82
2022/04/13 12:23:20;;;;;;;2.83;1.20;;;;;;;;;;5089805;28;20040;-82
2022/04/13 12:26:06;;;;;;;2.67;1.42;;;;;;;;;;5061702;28;20032;-82
2022/04/13 12:28:52;;;;;;;3.42;1.50;;;;;;;;;;5062444;28;20039;-82
2022/04/13 12:31:49;;;;;;;2.90;1.30;;;;;;;;;;5074826;28;20039;-82
2022/04/13 12:34:34;;;;;;;2.72;1.23;;;;;;;;;;5076204;28;20036;-82
2022/04/13 12:37:20;;;;;;;3.55;1.45;;;;;;;;;;5048693;28;20087;-82
2022/04/13 12:40:26;;;;;;;3.38;1.48;;;;;;;;;;5061673;28;20506;-82
2022/04/13 12:43:16;;;;;;;2.90;1.27;;;;;;;;;;5062868;28;20050;-82
2022/04/13 12:46:15;;;;;;;2.70;1.20;;;;;;;;;;5075525;28;20059;-83
2022/04/13 12:49:04;;;;;;;6.32;1.60;;;;;;;;;;5063221;28;20036;-83
2022/04/13 12:51:55;;;;;;;3.08;1.38;;;;;;;;;;5061031;28;20608;-82
2022/04/13 12:54:41;;;;;;;2.83;1.25;;;;;;;;;;5062768;28;20449;-83
2022/04/13 12:57:27;;;;;;;2.08;1.25;;;;;;;;;;5073446;28;20036;-82
2022/04/13 13:00:44;;;;;;;2.20;1.17;;;;;;;;;;5060943;28;20043;-82
2022/04/13 13:03:34;;;;;;;4.10;1.52;;;;;;;;;;5062893;28;20082;-81
2022/04/13 13:06:20;;;;;;;3.70;1.42;;;;;;;;;;5061668;28;20040;-80
2022/04/13 13:09:06;;;;;;;3.33;1.40;;;;;;;;;;5061260;28;20421;-81
2022/04/13 13:12:03;;;;;;;3.03;1.20;;;;;;;;;;5047658;28;20505;-82
2022/04/13 13:14:51;;;;;;;2.78;1.00;;;;;;;;;;5075773;28;20046;-82
2022/04/13 13:17:42;;;;;;;2.47;1.20;;;;;;;;;;5061404;28;20086;-83
2022/04/13 13:20:28;;;;;;;3.58;1.13;;;;;;;;;;5062140;28;20426;-82
2022/04/13 13:23:14;;;;;;;3.70;1.30;;;;;;;;;;5062227;28;20044;-82
2022/04/13 13:26:00;;;;;;;2.55;1.02;;;;;;;;;;5062259;28;20417;-82
2022/04/13 13:28:45;;;;;;;2.33;1.02;;;;;;;;;;5061006;28;20506;-82
2022/04/13 13:31:31;;;;;;;2.40;1.10;;;;;;;;;;5047291;28;20028;-82
2022/04/13 13:34:24;;;;;;;3.47;1.23;;;;;;;;;;5060657;28;20036;-82
2022/04/13 13:37:11;;;;;;;2.33;1.10;;;;;;;;;;5047123;28;20055;-83
2022/04/13 13:39:58;;;;;;;3.58;1.40;;;;;;;;;;5048335;28;20040;-82
2022/04/13 13:42:44;;;;;;;2.88;1.10;;;;;;;;;;5061535;28;20044;-82
2022/04/13 13:45:35;;;;;;;3.50;1.10;;;;;;;;;;5073837;28;20051;-82
2022/04/13 13:48:23;;;;;;;1.83;0.75;;;;;;;;;;5047120;28;20038;-82
2022/04/13 13:51:09;;;;;;;2.65;1.17;;;;;;;;;;5048375;28;20461;-83
2022/04/13 13:53:54;;;;;;;2.90;1.00;;;;;;;;;;5046974;28;20111;-83
2022/04/13 13:56:40;;;;;;;1.52;0.80;;;;;;;;;;5048638;28;20043;-83
2022/04/13 13:59:26;;;;;;;2.22;1.38;;;;;;;;;;5051182;28;20098;-83
2022/04/13 14:02:12;;;;;;;2.45;1.00;;;;;;;;;;5066259;28;20092;-83
2022/04/13 14:04:58;;;;;;;3.28;1.63;;;;;;;;;;5065432;28;20044;-82
2022/04/13 14:07:44;;;;;;;1.95;1.10;;;;;;;;;;5066102;28;20115;-81
2022/04/13 14:10:30;;;;;;;2.92;1.38;;;;;;;;;;5079402;28;20399;-80
2022/04/13 14:13:16;;;;;;;3.00;1.00;;;;;;;;;;5077598;28;20043;-81
2022/04/13 14:16:02;;;;;;;2.80;0.95;;;;;;;;;;5066458;28;20118;-80
2022/04/13 14:18:47;;;;;;;2.22;0.93;;;;;;;;;;5077005;28;20040;-83
2022/04/13 14:21:34;;;;;;;2.28;0.95;;;;;;;;;;5063747;28;20047;-83
2022/04/13 14:24:20;;;;;;;2.90;1.02;;;;;;;;;;5078740;28;20043;-82
2022/04/13 14:27:06;;;;;;;1.75;0.88;;;;;;;;;;5064583;28;20048;-82
2022/04/13 14:29:52;;;;;;;2.40;0.98;;;;;;;;;;5063865;28;20028;-84
2022/04/13 14:32:39;;;;;;;2.70;1.05;;;;;;;;;;5065891;28;20527;-82
2022/04/13 14:35:28;;;;;;;2.47;1.00;;;;;;;;;;5070468;28;20040;-83
2022/04/13 14:38:15;;;;;;;1.33;0.77;;;;;;;;;;5063870;28;20074;-82
2022/04/13 14:41:01;;;;;;;3.17;1.23;;;;;;;;;;5050705;28;20036;-83
2022/04/13 14:43:46;;;;;;;1.92;0.88;;;;;;;;;;5050719;28;20052;-81
2022/04/13 14:46:32;;;;;;;2.03;0.98;;;;;;;;;;5062632;28;20047;-81
2022/04/13 14:49:18;;;;;;;2.45;0.98;;;;;;;;;;5063475;28;20055;-81
2022/04/13 14:52:04;;;;;;;1.92;0.93;;;;;;;;;;5064287;28;20050;-80
2022/04/13 14:54:50;;;;;;;1.80;0.80;;;;;;;;;;5064553;28;20088;-83
2022/04/13 14:57:36;;;;;;;2.97;1.02;;;;;;;;;;5064561;28;20040;-81
2022/04/13 15:00:22;;;;;;;2.35;0.80;;;;;;;;;;5065153;28;20070;-81
2022/04/13 15:03:07;;;;;;;2.45;0.93;;;;;;;;;;5065724;28;20040;-81
2022/04/13 15:05:53;;;;;;;2.92;0.90;;;;;;;;;;5078275;28;20498;-83
2022/04/13 15:08:42;;;;;;;2.58;1.10;;;;;;;;;;5064031;28;20115;-82
2022/04/13 15:11:28;;;;;;;1.98;0.93;;;;;;;;;;5063589;28;20040;-82
2022/04/13 15:14:14;;;;;;;2.33;0.93;;;;;;;;;;5063861;28;20047;-83
2022/04/13 15:17:00;;;;;;;2.28;0.90;;;;;;;;;;5077263;28;20036;-83
2022/04/13 15:19:45;;;;;;;2.08;0.95;;;;;;;;;;5077764;28;20044;-83
2022/04/13 15:22:33;;;;;;;2.92;1.10;;;;;;;;;;5078012;28;20070;-83
2022/04/13 15:25:19;;;;;;;1.83;0.82;;;;;;;;;;5063098;28;20395;-82
2022/04/13 15:28:05;;;;;;;2.35;0.80;;;;;;;;;;5076982;28;20071;-82
2022/04/13 15:30:58;;;;;;;1.65;0.88;;;;;;;;;;5064439;28;20101;-83
2022/04/13 15:33:45;;;;;;;3.42;1.33;;;;;;;;;;5063338;28;20526;-83
2022/04/13 15:36:30;;;;;;;3.75;0.95;;;;;;;;;;5076048;28;20036;-83
2022/04/13 15:39:17;;;;;;;1.85;0.82;;;;;;;;;;5076664;28;20033;-83
2022/04/13 15:42:03;;;;;;;2.05;0.98;;;;;;;;;;5064376;28;20051;-83
2022/04/13 15:44:49;;;;;;;1.70;0.63;;;;;;;;;;5076815;28;20066;-83
2022/04/13 15:47:35;;;;;;;2.92;1.13;;;;;;;;;;5063846;28;20247;-83
2022/04/13 15:50:20;;;;;;;2.03;0.75;;;;;;;;;;5063701;28;20115;-83
2022/04/13 15:53:06;;;;;;;2.40;1.00;;;;;;;;;;5062102;28;20426;-83
2022/04/13 15:55:52;;;;;;;2.30;1.27;;;;;;;;;;5048974;28;20122;-83
2022/04/13 15:58:38;;;;;;;1.98;0.80;;;;;;;;;;5049590;28;20484;-83
2022/04/13 16:01:24;;;;;;;2.13;0.85;;;;;;;;;;5047861;28;20509;-83
2022/04/13 16:04:09;;;;;;;2.63;0.98;;;;;;;;;;5081950;28;20036;-83
2022/04/13 16:06:55;;;;;;;3.25;1.65;;;;;;;;;;5076011;28;20051;-83
2022/04/13 16:09:41;;;;;;;2.00;0.70;;;;;;;;;;5062542;28;20418;-83
2022/04/13 16:12:26;;;;;;;1.83;0.45;;;;;;;;;;5062632;28;20036;-83
2022/04/13 16:15:13;;;;;;;2.10;1.17;;;;;;;;;;5049110;28;20036;-83
2022/04/13 16:17:59;;;;;;;3.00;1.00;;;;;;;;;;5062321;28;20032;-83
2022/04/13 16:20:44;;;;;;;2.35;0.70;;;;;;;;;;5061558;28;20138;-83
2022/04/13 16:23:30;;;;;;;2.03;0.73;;;;;;;;;;5075935;28;20639;-83
2022/04/13 16:26:16;;;;;;;1.55;0.65;;;;;;;;;;5063019;28;20037;-83
2022/04/13 16:29:02;;;;;;;3.28;0.90;;;;;;;;;;5076494;28;20422;-83
2022/04/13 16:31:47;;;;;;;2.78;1.10;;;;;;;;;;5075297;28;20051;-82
2022/04/13 16:34:33;;;;;;;2.40;0.63;;;;;;;;;;5076237;28;20047;-83
2022/04/13 16:37:19;;;;;;;2.17;0.90;;;;;;;;;;5076289;28;20047;-83
2022/04/13 16:40:05;;;;;;;1.60;0.68;;;;;;;;;;5061810;28;20040;-83
2022/04/13 16:42:51;;;;;;;1.85;0.90;;;;;;;;;;5062128;28;20040;-84